sensor_id;sensor_type;location;lat;lon;timestamp;pressure;altitude;pressure_sealevel;temperature;humidity
16451;BME280;12243;42.708;23.310;2023-10-31T00:00:56;95234.53;;;12.13;89.42
16451;BME280;12243;42.708;23.310;2023-10-31T00:03:23;95243.34;;;11.91;91.08
16451;BME280;12243;42.708;23.310;2023-10-31T00:05:51;95229.38;;;11.81;91.89
16451;BME280;12243;42.708;23.310;2023-10-31T00:08:18;95242.53;;;11.70;92.16
16451;BME280;12243;42.708;23.310;2023-10-31T00:10:45;95235.91;;;11.66;92.93
16451;BME280;12243;42.708;23.310;2023-10-31T00:13:12;95222.41;;;11.61;93.13
16451;BME280;12243;42.708;23.310;2023-10-31T00:15:39;95223.84;;;11.86;92.19
16451;BME280;12243;42.708;23.310;2023-10-31T00:18:06;95219.50;;;11.75;92.30
16451;BME280;12243;42.708;23.310;2023-10-31T00:20:33;95218.88;;;11.62;93.02
16451;BME280;12243;42.708;23.310;2023-10-31T00:23:01;95221.84;;;11.57;93.27
16451;BME280;12243;42.708;23.310;2023-10-31T00:25:28;95221.00;;;11.47;93.97
16451;BME280;12243;42.708;23.310;2023-10-31T00:27:55;95222.25;;;11.53;93.70
16451;BME280;12243;42.708;23.310;2023-10-31T00:30:22;95217.53;;;11.47;94.06
16451;BME280;12243;42.708;23.310;2023-10-31T00:32:49;95215.19;;;11.43;94.23
16451;BME280;12243;42.708;23.310;2023-10-31T00:35:16;95218.06;;;11.40;94.36
16451;BME280;12243;42.708;23.310;2023-10-31T00:37:43;95215.00;;;11.35;94.95
16451;BME280;12243;42.708;23.310;2023-10-31T00:40:12;95216.66;;;11.36;94.05
16451;BME280;12243;42.708;23.310;2023-10-31T00:42:39;95211.00;;;11.31;94.10
16451;BME280;12243;42.708;23.310;2023-10-31T00:45:08;95209.47;;;11.29;94.11
16451;BME280;12243;42.708;23.310;2023-10-31T00:47:35;95208.56;;;11.39;93.77
16451;BME280;12243;42.708;23.310;2023-10-31T00:50:02;95206.69;;;11.41;92.86
16451;BME280;12243;42.708;23.310;2023-10-31T00:52:29;95207.69;;;11.29;93.97
16451;BME280;12243;42.708;23.310;2023-10-31T00:54:56;95207.19;;;11.35;93.94
16451;BME280;12243;42.708;23.310;2023-10-31T00:57:24;95204.25;;;11.29;93.89
16451;BME280;12243;42.708;23.310;2023-10-31T00:59:52;95199.19;;;11.27;94.51
16451;BME280;12243;42.708;23.310;2023-10-31T01:02:18;95187.09;;;11.26;93.58
16451;BME280;12243;42.708;23.310;2023-10-31T01:04:45;95182.47;;;11.30;94.41
16451;BME280;12243;42.708;23.310;2023-10-31T01:07:12;95193.97;;;11.27;94.17
16451;BME280;12243;42.708;23.310;2023-10-31T01:09:42;95182.16;;;11.23;94.15
16451;BME280;12243;42.708;23.310;2023-10-31T01:12:09;95180.22;;;11.25;94.09
16451;BME280;12243;42.708;23.310;2023-10-31T01:14:38;95182.09;;;11.13;95.41
16451;BME280;12243;42.708;23.310;2023-10-31T01:17:05;95180.56;;;11.11;95.29
16451;BME280;12243;42.708;23.310;2023-10-31T01:19:33;95180.81;;;11.08;95.72
16451;BME280;12243;42.708;23.310;2023-10-31T01:22:00;95183.09;;;11.01;95.65
16451;BME280;12243;42.708;23.310;2023-10-31T01:24:27;95183.41;;;11.08;95.39
16451;BME280;12243;42.708;23.310;2023-10-31T01:26:54;95165.38;;;11.16;94.76
16451;BME280;12243;42.708;23.310;2023-10-31T01:29:21;95172.97;;;11.08;95.10
16451;BME280;12243;42.708;23.310;2023-10-31T01:31:49;95172.97;;;11.08;95.17
16451;BME280;12243;42.708;23.310;2023-10-31T01:34:16;95166.88;;;10.97;96.43
16451;BME280;12243;42.708;23.310;2023-10-31T01:36:43;95166.38;;;11.04;96.52
16451;BME280;12243;42.708;23.310;2023-10-31T01:39:10;95166.06;;;10.97;95.47
16451;BME280;12243;42.708;23.310;2023-10-31T01:41:37;95163.84;;;10.92;96.48
16451;BME280;12243;42.708;23.310;2023-10-31T01:44:04;95175.97;;;11.03;96.31
16451;BME280;12243;42.708;23.310;2023-10-31T01:46:31;95175.25;;;11.01;95.67
16451;BME280;12243;42.708;23.310;2023-10-31T01:48:59;95166.84;;;10.88;95.98
16451;BME280;12243;42.708;23.310;2023-10-31T01:51:26;95166.50;;;10.81;96.58
16451;BME280;12243;42.708;23.310;2023-10-31T01:53:55;95167.69;;;10.77;96.71
16451;BME280;12243;42.708;23.310;2023-10-31T01:56:22;95161.28;;;10.81;96.63
16451;BME280;12243;42.708;23.310;2023-10-31T01:58:50;95159.00;;;10.88;96.40
16451;BME280;12243;42.708;23.310;2023-10-31T02:01:16;95167.66;;;10.88;96.36
16451;BME280;12243;42.708;23.310;2023-10-31T02:03:43;95162.94;;;10.82;96.46
16451;BME280;12243;42.708;23.310;2023-10-31T02:06:11;95163.44;;;10.76;97.26
16451;BME280;12243;42.708;23.310;2023-10-31T02:08:38;95151.69;;;10.82;97.19
16451;BME280;12243;42.708;23.310;2023-10-31T02:11:05;95152.06;;;10.77;97.18
16451;BME280;12243;42.708;23.310;2023-10-31T02:13:36;95154.78;;;10.76;97.42
16451;BME280;12243;42.708;23.310;2023-10-31T02:16:03;95151.75;;;10.70;97.61
16451;BME280;12243;42.708;23.310;2023-10-31T02:18:30;95153.97;;;10.75;96.91
16451;BME280;12243;42.708;23.310;2023-10-31T02:20:57;95159.44;;;10.72;97.12
16451;BME280;12243;42.708;23.310;2023-10-31T02:23:26;95148.63;;;10.77;96.80
16451;BME280;12243;42.708;23.310;2023-10-31T02:25:53;95146.16;;;10.75;97.10
16451;BME280;12243;42.708;23.310;2023-10-31T02:28:19;95143.63;;;10.64;97.76
16451;BME280;12243;42.708;23.310;2023-10-31T02:30:46;95141.38;;;10.59;98.54
16451;BME280;12243;42.708;23.310;2023-10-31T02:33:13;95139.47;;;10.61;97.37
16451;BME280;12243;42.708;23.310;2023-10-31T02:35:40;95145.50;;;10.62;98.36
16451;BME280;12243;42.708;23.310;2023-10-31T02:38:07;95142.19;;;10.60;99.18
16451;BME280;12243;42.708;23.310;2023-10-31T02:40:36;95138.41;;;10.64;99.37
16451;BME280;12243;42.708;23.310;2023-10-31T02:43:04;95141.19;;;10.72;98.42
16451;BME280;12243;42.708;23.310;2023-10-31T02:45:32;95141.13;;;10.62;98.55
16451;BME280;12243;42.708;23.310;2023-10-31T02:47:59;95143.09;;;10.70;99.38
16451;BME280;12243;42.708;23.310;2023-10-31T02:50:26;95146.91;;;10.66;98.30
16451;BME280;12243;42.708;23.310;2023-10-31T02:52:53;95144.53;;;10.63;98.32
16451;BME280;12243;42.708;23.310;2023-10-31T02:55:20;95157.19;;;10.46;98.69
16451;BME280;12243;42.708;23.310;2023-10-31T02:57:49;95156.25;;;10.36;99.35
16451;BME280;12243;42.708;23.310;2023-10-31T03:00:16;95151.31;;;10.33;99.25
16451;BME280;12243;42.708;23.310;2023-10-31T03:02:43;95152.47;;;10.40;98.00
16451;BME280;12243;42.708;23.310;2023-10-31T03:05:10;95151.41;;;10.20;97.68
16451;BME280;12243;42.708;23.310;2023-10-31T03:07:37;95151.78;;;10.16;97.74
16451;BME280;12243;42.708;23.310;2023-10-31T03:10:05;95150.63;;;10.09;97.72
16451;BME280;12243;42.708;23.310;2023-10-31T03:12:33;95150.50;;;10.10;97.54
16451;BME280;12243;42.708;23.310;2023-10-31T03:15:01;95161.03;;;10.09;97.13
16451;BME280;12243;42.708;23.310;2023-10-31T03:17:29;95145.34;;;9.88;97.65
16451;BME280;12243;42.708;23.310;2023-10-31T03:19:56;95153.28;;;9.75;97.63
16451;BME280;12243;42.708;23.310;2023-10-31T03:22:23;95153.88;;;9.67;98.91
16451;BME280;12243;42.708;23.310;2023-10-31T03:24:49;95139.78;;;9.59;99.41
16451;BME280;12243;42.708;23.310;2023-10-31T03:27:16;95135.44;;;9.59;99.52
16451;BME280;12243;42.708;23.310;2023-10-31T03:29:43;95133.19;;;9.77;98.18
16451;BME280;12243;42.708;23.310;2023-10-31T03:32:12;95126.56;;;9.73;96.34
16451;BME280;12243;42.708;23.310;2023-10-31T03:34:39;95116.41;;;9.59;97.47
16451;BME280;12243;42.708;23.310;2023-10-31T03:37:06;95119.34;;;9.65;97.74
16451;BME280;12243;42.708;23.310;2023-10-31T03:39:33;95126.81;;;9.47;99.01
16451;BME280;12243;42.708;23.310;2023-10-31T03:42:00;95128.72;;;9.45;99.09
16451;BME280;12243;42.708;23.310;2023-10-31T03:44:28;95119.72;;;9.27;100.00
16451;BME280;12243;42.708;23.310;2023-10-31T03:46:55;95134.63;;;9.25;100.00
16451;BME280;12243;42.708;23.310;2023-10-31T03:49:23;95140.63;;;9.48;99.86
16451;BME280;12243;42.708;23.310;2023-10-31T03:51:50;95137.44;;;9.33;99.51
16451;BME280;12243;42.708;23.310;2023-10-31T03:54:17;95139.56;;;9.17;99.84
16451;BME280;12243;42.708;23.310;2023-10-31T03:56:44;95137.69;;;9.19;98.96
16451;BME280;12243;42.708;23.310;2023-10-31T03:59:12;95138.00;;;9.03;98.92
16451;BME280;12243;42.708;23.310;2023-10-31T04:01:39;95127.50;;;8.93;99.70
16451;BME280;12243;42.708;23.310;2023-10-31T04:04:06;95132.09;;;9.01;99.55
16451;BME280;12243;42.708;23.310;2023-10-31T04:06:34;95134.56;;;8.91;100.00
16451;BME280;12243;42.708;23.310;2023-10-31T04:09:05;95127.34;;;8.83;100.00
16451;BME280;12243;42.708;23.310;2023-10-31T04:11:32;95127.72;;;8.90;100.00
16451;BME280;12243;42.708;23.310;2023-10-31T04:13:59;95131.94;;;8.80;100.00
16451;BME280;12243;42.708;23.310;2023-10-31T04:16:26;95130.78;;;8.84;100.00
16451;BME280;12243;42.708;23.310;2023-10-31T04:18:55;95114.28;;;8.96;100.00
16451;BME280;12243;42.708;23.310;2023-10-31T04:21:22;95106.59;;;8.95;100.00
16451;BME280;12243;42.708;23.310;2023-10-31T04:23:53;95106.13;;;8.90;100.00
16451;BME280;12243;42.708;23.310;2023-10-31T04:26:20;95103.75;;;8.75;100.00
16451;BME280;12243;42.708;23.310;2023-10-31T04:28:46;95099.59;;;8.73;100.00
16451;BME280;12243;42.708;23.310;2023-10-31T04:31:13;95106.66;;;8.71;100.00
16451;BME280;12243;42.708;23.310;2023-10-31T04:33:40;95098.78;;;8.72;100.00
16451;BME280;12243;42.708;23.310;2023-10-31T04:36:08;95105.22;;;8.67;100.00
16451;BME280;12243;42.708;23.310;2023-10-31T04:38:37;95117.03;;;8.71;100.00
16451;BME280;12243;42.708;23.310;2023-10-31T04:41:07;95109.91;;;8.86;100.00
16451;BME280;12243;42.708;23.310;2023-10-31T04:43:35;95116.59;;;8.77;100.00
16451;BME280;12243;42.708;23.310;2023-10-31T04:46:02;95115.41;;;8.81;100.00
16451;BME280;12243;42.708;23.310;2023-10-31T04:48:29;95119.44;;;8.85;100.00
16451;BME280;12243;42.708;23.310;2023-10-31T04:50:57;95126.53;;;8.94;100.00
16451;BME280;12243;42.708;23.310;2023-10-31T04:53:24;95126.78;;;9.02;100.00
16451;BME280;12243;42.708;23.310;2023-10-31T04:55:51;95136.25;;;9.03;100.00
16451;BME280;12243;42.708;23.310;2023-10-31T04:58:19;95138.09;;;8.90;100.00
16451;BME280;12243;42.708;23.310;2023-10-31T05:00:46;95142.47;;;8.90;100.00
16451;BME280;12243;42.708;23.310;2023-10-31T05:03:14;95143.28;;;8.79;100.00
16451;BME280;12243;42.708;23.310;2023-10-31T05:05:40;95136.59;;;8.64;100.00
16451;BME280;12243;42.708;23.310;2023-10-31T05:08:07;95126.94;;;8.54;100.00
16451;BME280;12243;42.708;23.310;2023-10-31T05:10:34;95138.94;;;8.55;100.00
16451;BME280;12243;42.708;23.310;2023-10-31T05:13:01;95130.94;;;8.58;100.00
16451;BME280;12243;42.708;23.310;2023-10-31T05:15:30;95126.59;;;8.70;100.00
16451;BME280;12243;42.708;23.310;2023-10-31T05:17:58;95126.75;;;8.80;100.00
16451;BME280;12243;42.708;23.310;2023-10-31T05:20:25;95131.00;;;8.81;100.00
16451;BME280;12243;42.708;23.310;2023-10-31T05:22:52;95138.34;;;8.87;100.00
16451;BME280;12243;42.708;23.310;2023-10-31T05:25:19;95129.38;;;9.02;100.00
16451;BME280;12243;42.708;23.310;2023-10-31T05:27:46;95140.50;;;9.27;100.00
16451;BME280;12243;42.708;23.310;2023-10-31T05:30:14;95138.84;;;9.26;100.00
16451;BME280;12243;42.708;23.310;2023-10-31T05:32:42;95134.34;;;9.17;100.00
16451;BME280;12243;42.708;23.310;2023-10-31T05:35:10;95133.91;;;9.23;100.00
16451;BME280;12243;42.708;23.310;2023-10-31T05:37:38;95145.13;;;9.35;100.00
16451;BME280;12243;42.708;23.310;2023-10-31T05:40:06;95150.06;;;9.38;100.00
16451;BME280;12243;42.708;23.310;2023-10-31T05:42:33;95153.16;;;9.54;100.00
16451;BME280;12243;42.708;23.310;2023-10-31T05:45:00;95149.28;;;9.60;100.00
16451;BME280;12243;42.708;23.310;2023-10-31T05:47:27;95149.47;;;9.79;100.00
16451;BME280;12243;42.708;23.310;2023-10-31T05:49:55;95152.44;;;9.86;100.00
16451;BME280;12243;42.708;23.310;2023-10-31T05:52:23;95147.34;;;9.95;99.48
16451;BME280;12243;42.708;23.310;2023-10-31T05:54:49;95165.53;;;10.07;99.15
16451;BME280;12243;42.708;23.310;2023-10-31T05:57:16;95167.78;;;10.11;99.63
16451;BME280;12243;42.708;23.310;2023-10-31T05:59:43;95164.69;;;10.06;99.33
16451;BME280;12243;42.708;23.310;2023-10-31T06:02:10;95174.53;;;10.02;100.00
16451;BME280;12243;42.708;23.310;2023-10-31T06:04:37;95182.53;;;10.22;99.32
16451;BME280;12243;42.708;23.310;2023-10-31T06:07:05;95179.66;;;10.25;98.31
16451;BME280;12243;42.708;23.310;2023-10-31T06:09:32;95180.41;;;10.16;98.14
16451;BME280;12243;42.708;23.310;2023-10-31T06:12:00;95189.63;;;10.20;97.40
16451;BME280;12243;42.708;23.310;2023-10-31T06:14:29;95190.34;;;10.11;97.67
16451;BME280;12243;42.708;23.310;2023-10-31T06:16:56;95180.19;;;10.19;97.62
16451;BME280;12243;42.708;23.310;2023-10-31T06:19:24;95183.50;;;10.32;96.26
16451;BME280;12243;42.708;23.310;2023-10-31T06:21:52;95171.84;;;10.25;97.27
16451;BME280;12243;42.708;23.310;2023-10-31T06:24:20;95172.56;;;10.38;97.33
16451;BME280;12243;42.708;23.310;2023-10-31T06:26:47;95170.63;;;10.52;98.07
16451;BME280;12243;42.708;23.310;2023-10-31T06:29:15;95177.41;;;10.75;96.49
16451;BME280;12243;42.708;23.310;2023-10-31T06:31:41;95175.66;;;10.96;93.90
16451;BME280;12243;42.708;23.310;2023-10-31T06:34:08;95184.22;;;11.08;92.88
16451;BME280;12243;42.708;23.310;2023-10-31T06:36:35;95177.94;;;11.11;92.93
16451;BME280;12243;42.708;23.310;2023-10-31T06:39:02;95184.75;;;11.23;91.32
16451;BME280;12243;42.708;23.310;2023-10-31T06:41:31;95176.31;;;11.10;92.53
16451;BME280;12243;42.708;23.310;2023-10-31T06:43:57;95166.31;;;11.15;93.51
16451;BME280;12243;42.708;23.310;2023-10-31T06:46:24;95165.16;;;11.29;93.66
16451;BME280;12243;42.708;23.310;2023-10-31T06:48:51;95167.47;;;11.53;93.71
16451;BME280;12243;42.708;23.310;2023-10-31T06:51:18;95156.31;;;11.81;90.86
16451;BME280;12243;42.708;23.310;2023-10-31T06:53:45;95161.91;;;11.98;91.29
16451;BME280;12243;42.708;23.310;2023-10-31T06:56:12;95167.34;;;12.25;89.38
16451;BME280;12243;42.708;23.310;2023-10-31T06:58:41;95161.72;;;12.39;88.62
16451;BME280;12243;42.708;23.310;2023-10-31T07:01:08;95169.03;;;12.65;87.64
16451;BME280;12243;42.708;23.310;2023-10-31T07:03:36;95164.78;;;12.83;87.68
16451;BME280;12243;42.708;23.310;2023-10-31T07:06:04;95169.00;;;13.04;85.75
16451;BME280;12243;42.708;23.310;2023-10-31T07:08:31;95171.59;;;13.23;85.03
16451;BME280;12243;42.708;23.310;2023-10-31T07:10:58;95166.38;;;13.43;83.84
16451;BME280;12243;42.708;23.310;2023-10-31T07:13:25;95161.69;;;13.46;83.59
16451;BME280;12243;42.708;23.310;2023-10-31T07:15:53;95153.91;;;13.64;82.76
16451;BME280;12243;42.708;23.310;2023-10-31T07:18:20;95150.56;;;13.72;82.57
16451;BME280;12243;42.708;23.310;2023-10-31T07:20:46;95160.31;;;13.79;82.94
16451;BME280;12243;42.708;23.310;2023-10-31T07:23:13;95144.66;;;13.97;82.61
16451;BME280;12243;42.708;23.310;2023-10-31T07:25:41;95142.84;;;14.25;80.45
16451;BME280;12243;42.708;23.310;2023-10-31T07:28:09;95146.91;;;14.38;78.59
16451;BME280;12243;42.708;23.310;2023-10-31T07:30:35;95147.44;;;14.41;78.66
16451;BME280;12243;42.708;23.310;2023-10-31T07:33:04;95141.03;;;14.53;78.79
16451;BME280;12243;42.708;23.310;2023-10-31T07:35:31;95144.41;;;14.82;76.63
16451;BME280;12243;42.708;23.310;2023-10-31T07:37:57;95132.88;;;14.74;77.79
16451;BME280;12243;42.708;23.310;2023-10-31T07:40:24;95148.38;;;14.86;76.72
16451;BME280;12243;42.708;23.310;2023-10-31T07:42:51;95139.28;;;14.98;75.96
16451;BME280;12243;42.708;23.310;2023-10-31T07:45:18;95132.94;;;15.00;75.39
16451;BME280;12243;42.708;23.310;2023-10-31T07:47:45;95129.25;;;15.11;75.43
16451;BME280;12243;42.708;23.310;2023-10-31T07:50:13;95131.31;;;15.25;74.87
16451;BME280;12243;42.708;23.310;2023-10-31T07:52:40;95119.88;;;15.35;75.32
16451;BME280;12243;42.708;23.310;2023-10-31T07:55:09;95120.47;;;15.55;74.68
16451;BME280;12243;42.708;23.310;2023-10-31T07:57:37;95111.00;;;15.62;74.91
16451;BME280;12243;42.708;23.310;2023-10-31T08:00:10;95112.31;;;15.92;78.10
16451;BME280;12243;42.708;23.310;2023-10-31T08:02:37;95106.75;;;15.95;74.36
16451;BME280;12243;42.708;23.310;2023-10-31T08:05:05;95106.44;;;16.06;73.29
16451;BME280;12243;42.708;23.310;2023-10-31T08:07:33;95103.25;;;16.29;72.81
16451;BME280;12243;42.708;23.310;2023-10-31T08:10:00;95105.06;;;16.44;72.37
16451;BME280;12243;42.708;23.310;2023-10-31T08:12:29;95105.59;;;16.56;72.10
16451;BME280;12243;42.708;23.310;2023-10-31T08:14:56;95103.28;;;16.70;71.63
16451;BME280;12243;42.708;23.310;2023-10-31T08:17:24;95099.72;;;16.79;72.46
16451;BME280;12243;42.708;23.310;2023-10-31T08:19:51;95097.25;;;16.85;72.97
16451;BME280;12243;42.708;23.310;2023-10-31T08:22:18;95093.66;;;16.95;71.33
16451;BME280;12243;42.708;23.310;2023-10-31T08:24:46;95076.69;;;16.97;71.58
16451;BME280;12243;42.708;23.310;2023-10-31T08:27:13;95075.69;;;17.06;70.85
16451;BME280;12243;42.708;23.310;2023-10-31T08:29:40;95069.78;;;17.12;70.71
16451;BME280;12243;42.708;23.310;2023-10-31T08:32:07;95067.28;;;17.27;70.44
16451;BME280;12243;42.708;23.310;2023-10-31T08:34:34;95064.78;;;17.34;70.21
16451;BME280;12243;42.708;23.310;2023-10-31T08:37:01;95067.50;;;17.57;69.06
16451;BME280;12243;42.708;23.310;2023-10-31T08:39:28;95068.47;;;17.72;69.91
16451;BME280;12243;42.708;23.310;2023-10-31T08:41:57;95049.78;;;17.90;68.27
16451;BME280;12243;42.708;23.310;2023-10-31T08:44:25;95042.97;;;18.04;67.95
16451;BME280;12243;42.708;23.310;2023-10-31T08:46:52;95043.66;;;17.98;67.61
16451;BME280;12243;42.708;23.310;2023-10-31T08:49:19;95037.69;;;18.04;67.97
16451;BME280;12243;42.708;23.310;2023-10-31T08:51:45;95030.06;;;18.17;67.63
16451;BME280;12243;42.708;23.310;2023-10-31T08:54:12;95013.63;;;18.30;66.57
16451;BME280;12243;42.708;23.310;2023-10-31T08:56:39;95019.81;;;18.45;65.58
16451;BME280;12243;42.708;23.310;2023-10-31T08:59:07;95026.00;;;18.52;65.48
16451;BME280;12243;42.708;23.310;2023-10-31T09:01:34;95025.31;;;18.59;65.20
16451;BME280;12243;42.708;23.310;2023-10-31T09:04:01;95014.19;;;18.48;65.89
16451;BME280;12243;42.708;23.310;2023-10-31T09:06:28;95008.94;;;18.63;65.27
16451;BME280;12243;42.708;23.310;2023-10-31T09:08:55;95001.19;;;18.62;64.66
16451;BME280;12243;42.708;23.310;2023-10-31T09:11:22;94991.38;;;18.55;65.36
16451;BME280;12243;42.708;23.310;2023-10-31T09:13:49;94989.56;;;18.71;65.18
16451;BME280;12243;42.708;23.310;2023-10-31T09:16:17;94995.25;;;18.83;64.55
16451;BME280;12243;42.708;23.310;2023-10-31T09:18:44;94981.19;;;18.90;64.16
16451;BME280;12243;42.708;23.310;2023-10-31T09:21:12;94987.38;;;18.97;63.50
16451;BME280;12243;42.708;23.310;2023-10-31T09:23:39;94985.94;;;18.95;63.39
16451;BME280;12243;42.708;23.310;2023-10-31T09:26:06;94983.47;;;18.93;63.42
16451;BME280;12243;42.708;23.310;2023-10-31T09:28:33;94972.53;;;18.96;63.17
16451;BME280;12243;42.708;23.310;2023-10-31T09:31:00;94964.91;;;19.01;63.08
16451;BME280;12243;42.708;23.310;2023-10-31T09:33:28;94965.97;;;19.07;62.52
16451;BME280;12243;42.708;23.310;2023-10-31T09:35:55;94963.00;;;19.25;61.90
16451;BME280;12243;42.708;23.310;2023-10-31T09:38:22;94950.78;;;19.24;61.83
16451;BME280;12243;42.708;23.310;2023-10-31T09:40:49;94943.69;;;19.39;61.05
16451;BME280;12243;42.708;23.310;2023-10-31T09:43:16;94937.34;;;19.55;61.20
16451;BME280;12243;42.708;23.310;2023-10-31T09:45:47;94932.47;;;19.67;60.04
16451;BME280;12243;42.708;23.310;2023-10-31T09:48:15;94920.88;;;19.68;60.17
16451;BME280;12243;42.708;23.310;2023-10-31T09:50:45;94921.56;;;19.77;60.18
16451;BME280;12243;42.708;23.310;2023-10-31T09:53:14;94924.19;;;19.91;59.26
16451;BME280;12243;42.708;23.310;2023-10-31T09:55:42;94919.88;;;19.90;59.00
16451;BME280;12243;42.708;23.310;2023-10-31T09:58:09;94921.53;;;19.91;59.15
16451;BME280;12243;42.708;23.310;2023-10-31T10:00:36;94906.56;;;19.98;59.06
16451;BME280;12243;42.708;23.310;2023-10-31T10:03:06;94893.38;;;20.27;58.48
16451;BME280;12243;42.708;23.310;2023-10-31T10:05:35;94884.25;;;20.51;57.97
16451;BME280;12243;42.708;23.310;2023-10-31T10:08:04;94876.84;;;20.74;56.27
16451;BME280;12243;42.708;23.310;2023-10-31T10:10:32;94869.78;;;20.81;56.19
16451;BME280;12243;42.708;23.310;2023-10-31T10:12:59;94869.59;;;20.83;55.77
16451;BME280;12243;42.708;23.310;2023-10-31T10:15:28;94869.78;;;20.81;55.77
16451;BME280;12243;42.708;23.310;2023-10-31T10:17:55;94861.31;;;20.92;55.77
16451;BME280;12243;42.708;23.310;2023-10-31T10:20:22;94860.16;;;21.15;54.00
16451;BME280;12243;42.708;23.310;2023-10-31T10:22:49;94854.47;;;21.18;54.12
16451;BME280;12243;42.708;23.310;2023-10-31T10:25:18;94850.84;;;21.26;53.97
16451;BME280;12243;42.708;23.310;2023-10-31T10:27:45;94851.09;;;21.31;52.99
16451;BME280;12243;42.708;23.310;2023-10-31T10:30:14;94846.25;;;21.41;52.44
16451;BME280;12243;42.708;23.310;2023-10-31T10:32:41;94851.41;;;21.62;51.82
16451;BME280;12243;42.708;23.310;2023-10-31T10:35:08;94848.53;;;21.64;51.53
16451;BME280;12243;42.708;23.310;2023-10-31T10:37:36;94845.28;;;21.55;52.61
16451;BME280;12243;42.708;23.310;2023-10-31T10:40:07;94840.81;;;21.69;52.44
16451;BME280;12243;42.708;23.310;2023-10-31T10:42:42;94829.84;;;21.99;51.28
16451;BME280;12243;42.708;23.310;2023-10-31T10:45:13;94817.19;;;22.27;50.65
16451;BME280;12243;42.708;23.310;2023-10-31T10:47:45;94817.81;;;22.56;49.65
16451;BME280;12243;42.708;23.310;2023-10-31T10:50:13;94809.53;;;22.91;47.38
16451;BME280;12243;42.708;23.310;2023-10-31T10:52:44;94790.91;;;23.04;46.02
16451;BME280;12243;42.708;23.310;2023-10-31T10:55:13;94803.22;;;22.98;45.94
16451;BME280;12243;42.708;23.310;2023-10-31T10:57:48;94799.28;;;23.01;46.11
16451;BME280;12243;42.708;23.310;2023-10-31T11:00:20;94783.53;;;23.13;45.92
16451;BME280;12243;42.708;23.310;2023-10-31T11:02:51;94787.09;;;23.32;44.86
16451;BME280;12243;42.708;23.310;2023-10-31T11:05:18;94796.69;;;23.33;44.84
16451;BME280;12243;42.708;23.310;2023-10-31T11:07:46;94788.94;;;23.31;44.87
16451;BME280;12243;42.708;23.310;2023-10-31T11:10:14;94784.63;;;23.37;44.69
16451;BME280;12243;42.708;23.310;2023-10-31T11:12:42;94777.69;;;23.36;44.38
16451;BME280;12243;42.708;23.310;2023-10-31T11:15:12;94771.47;;;23.48;43.84
16451;BME280;12243;42.708;23.310;2023-10-31T11:17:41;94750.78;;;23.57;43.04
16451;BME280;12243;42.708;23.310;2023-10-31T11:20:10;94760.00;;;23.54;42.93
16451;BME280;12243;42.708;23.310;2023-10-31T11:22:40;94752.63;;;23.50;40.63
16451;BME280;12243;42.708;23.310;2023-10-31T11:25:09;94742.53;;;23.34;39.82
16451;BME280;12243;42.708;23.310;2023-10-31T11:27:36;94744.22;;;23.21;40.09
16451;BME280;12243;42.708;23.310;2023-10-31T11:30:06;94737.00;;;22.97;40.11
16451;BME280;12243;42.708;23.310;2023-10-31T11:32:35;94732.72;;;22.96;40.38
16451;BME280;12243;42.708;23.310;2023-10-31T11:35:02;94727.25;;;22.77;39.82
16451;BME280;12243;42.708;23.310;2023-10-31T11:37:32;94714.78;;;22.85;39.46
16451;BME280;12243;42.708;23.310;2023-10-31T11:40:19;94714.94;;;22.90;39.63
16451;BME280;12243;42.708;23.310;2023-10-31T11:42:48;94715.34;;;23.00;39.22
16451;BME280;12243;42.708;23.310;2023-10-31T11:45:30;94705.41;;;23.20;38.47
16451;BME280;12243;42.708;23.310;2023-10-31T11:47:59;94704.56;;;23.26;37.91
16451;BME280;12243;42.708;23.310;2023-10-31T11:50:26;94703.69;;;23.33;38.25
16451;BME280;12243;42.708;23.310;2023-10-31T11:53:00;94706.78;;;23.29;38.74
16451;BME280;12243;42.708;23.310;2023-10-31T11:55:28;94702.41;;;23.42;38.85
16451;BME280;12243;42.708;23.310;2023-10-31T11:57:55;94695.38;;;23.54;38.79
16451;BME280;12243;42.708;23.310;2023-10-31T12:00:23;94685.50;;;23.61;38.65
16451;BME280;12243;42.708;23.310;2023-10-31T12:02:59;94688.75;;;23.63;38.70
16451;BME280;12243;42.708;23.310;2023-10-31T12:05:26;94698.13;;;23.66;38.45
16451;BME280;12243;42.708;23.310;2023-10-31T12:07:53;94676.41;;;23.75;38.13
16451;BME280;12243;42.708;23.310;2023-10-31T12:10:24;94676.88;;;23.66;37.86
16451;BME280;12243;42.708;23.310;2023-10-31T12:12:52;94672.34;;;23.66;38.02
16451;BME280;12243;42.708;23.310;2023-10-31T12:15:19;94652.78;;;23.61;38.26
16451;BME280;12243;42.708;23.310;2023-10-31T12:17:46;94662.75;;;23.65;38.43
16451;BME280;12243;42.708;23.310;2023-10-31T12:20:15;94661.50;;;23.74;38.19
16451;BME280;12243;42.708;23.310;2023-10-31T12:22:42;94659.72;;;23.87;37.92
16451;BME280;12243;42.708;23.310;2023-10-31T12:25:11;94675.56;;;24.00;38.21
16451;BME280;12243;42.708;23.310;2023-10-31T12:27:45;94661.47;;;24.18;38.19
16451;BME280;12243;42.708;23.310;2023-10-31T12:30:13;94656.09;;;24.43;37.97
16451;BME280;12243;42.708;23.310;2023-10-31T12:32:41;94649.28;;;24.65;37.63
16451;BME280;12243;42.708;23.310;2023-10-31T12:35:09;94651.34;;;24.63;37.64
16451;BME280;12243;42.708;23.310;2023-10-31T12:37:44;94638.16;;;24.68;37.56
16451;BME280;12243;42.708;23.310;2023-10-31T12:40:12;94628.78;;;24.66;37.63
16451;BME280;12243;42.708;23.310;2023-10-31T12:42:42;94621.38;;;24.68;38.63
16451;BME280;12243;42.708;23.310;2023-10-31T12:45:09;94621.81;;;24.65;38.52
16451;BME280;12243;42.708;23.310;2023-10-31T12:47:37;94611.13;;;24.35;39.02
16451;BME280;12243;42.708;23.310;2023-10-31T12:50:09;94602.25;;;24.04;40.17
16451;BME280;12243;42.708;23.310;2023-10-31T12:52:48;94612.75;;;23.99;40.50